New York, New York
Traffic Map
Current Weather Conditions
New York, New York
Clear
Clear

Feels Like: -1°
Wind Chill: -1° Ceiling: Unl
Heat Index: Visibility: 10mi
Dew Point: -1° Wind: 6mph
Humidity: 85% Direction: 300° (WNW)
Pressure: 29.84in Gusts: 0mph
Raw Report DataKNYC 010451Z AUTO 30005KT 10SM CLR 02/M01 A2984 RMK AO2 SLP097 T00171006 400830017 $
Traffic Incident Summary
Active as of:
Severity:
Category:
InformationThere was an issue retrieving the traffic information for this location. Please try a different location or try again shortly.
Advertisements
Track Severe Weather on mobile